Time;durP1;ratioP1;P1;durP2;ratioP2;P2;SDS_P1;SDS_P2;PMS_P1;PMS_P2;Temp;Humidity;BMP_temperature;BMP_pressure;BME280_temperature;BME280_humidity;BME280_pressure;Samples;Min_cycle;Max_cycle;Signal;HPM_P1;HPM_P2
2022/07/29 00:02:22;;;;;;;2.05;1.40;;;;;;;22.81;58.13;95552.06;4895422;29;20258;-84
2022/07/29 00:04:48;;;;;;;1.50;1.40;;;;;;;22.84;58.66;95542.91;4896685;29;20238;-84
2022/07/29 00:07:16;;;;;;;1.40;1.30;;;;;;;22.79;59.24;95543.66;4896699;29;20203;-84
2022/07/29 00:09:42;;;;;;;1.55;1.45;;;;;;;22.66;60.11;95547.50;4896420;29;20203;-84
2022/07/29 00:12:09;;;;;;;2.10;1.52;;;;;;;22.60;60.44;95538.00;4895736;29;20218;-84
2022/07/29 00:14:35;;;;;;;1.40;1.30;;;;;;;22.57;61.21;95537.72;4896365;29;20246;-85
2022/07/29 00:17:02;;;;;;;1.33;1.30;;;;;;;22.40;62.32;95537.88;4896978;29;20207;-85
2022/07/29 00:19:28;;;;;;;1.75;1.65;;;;;;;22.44;61.81;95538.94;4896769;29;20629;-84
2022/07/29 00:21:54;;;;;;;2.53;1.70;;;;;;;22.49;62.56;95539.00;4895867;29;20206;-85
2022/07/29 00:24:22;;;;;;;1.80;1.70;;;;;;;22.45;63.37;95542.38;4895877;29;20642;-84
2022/07/29 00:26:49;;;;;;;2.22;1.80;;;;;;;22.52;63.24;95541.09;4896492;29;20219;-84
2022/07/29 00:29:15;;;;;;;1.85;1.60;;;;;;;22.56;62.97;95544.00;4896131;29;20203;-85
2022/07/29 00:31:41;;;;;;;2.00;1.80;;;;;;;22.52;63.55;95540.28;4895683;29;20214;-84
2022/07/29 00:35:43;;;;;;;2.78;1.63;;;;;;;22.60;62.76;95539.84;4895429;29;20746;-84
2022/07/29 00:36:53;;;;;;;2.38;1.95;;;;;;;22.60;62.91;95548.50;4895573;29;20203;-85
2022/07/29 00:39:20;;;;;;;2.13;1.60;;;;;;;22.59;62.74;95536.41;4896024;29;21008;-85
2022/07/29 00:41:48;;;;;;;1.90;1.80;;;;;;;22.57;62.80;95537.72;4895281;29;20246;-85
2022/07/29 00:44:15;;;;;;;1.65;1.55;;;;;;;22.60;62.70;95527.50;4895410;29;20239;-84
2022/07/29 00:46:41;;;;;;;1.95;1.75;;;;;;;22.72;62.20;95527.31;4895898;29;20199;-84
2022/07/29 00:49:08;;;;;;;2.92;2.00;;;;;;;22.81;61.66;95517.94;4895678;29;20282;-84
2022/07/29 00:51:35;;;;;;;1.80;1.70;;;;;;;22.83;61.24;95523.72;4894793;29;20210;-84
2022/07/29 00:54:02;;;;;;;1.60;1.50;;;;;;;22.89;60.90;95517.47;4895406;29;20246;-84
2022/07/29 00:56:30;;;;;;;2.67;1.58;;;;;;;22.90;60.58;95513.78;4895796;29;20199;-84
2022/07/29 00:58:59;;;;;;;2.22;1.45;;;;;;;22.92;59.96;95514.31;4895778;29;20218;-84
2022/07/29 01:01:26;;;;;;;4.13;1.60;;;;;;;22.89;60.51;95500.94;4894808;29;20671;-84
2022/07/29 01:03:53;;;;;;;1.50;1.40;;;;;;;22.89;59.90;95501.72;4894966;29;20235;-84
2022/07/29 01:06:20;;;;;;;1.83;1.70;;;;;;;22.90;59.34;95494.63;4895351;29;20203;-84
2022/07/29 01:08:49;;;;;;;2.20;1.55;;;;;;;22.82;58.77;95487.22;4895583;29;20195;-84
2022/07/29 01:11:16;;;;;;;1.48;1.33;;;;;;;22.87;57.96;95482.00;4895196;29;20757;-84
2022/07/29 01:13:43;;;;;;;1.30;1.20;;;;;;;22.84;57.07;95482.50;4894681;29;20231;-85
2022/07/29 01:16:17;;;;;;;1.42;1.33;;;;;;;22.89;56.75;95491.22;4895670;29;20250;-84
2022/07/29 01:18:47;;;;;;;1.40;1.30;;;;;;;22.95;56.28;95487.53;4894952;29;20198;-84
2022/07/29 01:21:31;;;;;;;1.25;1.20;;;;;;;23.04;55.95;95490.47;4895114;29;20258;-84
2022/07/29 01:24:12;;;;;;;1.40;1.30;;;;;;;23.04;55.41;95490.47;4894594;29;20306;-84
2022/07/29 01:26:46;;;;;;;1.20;1.10;;;;;;;23.03;55.77;95492.31;4895529;29;20240;-85
2022/07/29 01:29:23;;;;;;;1.02;1.00;;;;;;;23.03;55.78;95496.78;4895092;29;20258;-84
2022/07/29 01:31:55;;;;;;;1.02;1.00;;;;;;;23.03;55.70;95496.78;4895016;29;20214;-84
2022/07/29 01:34:28;;;;;;;0.88;0.88;;;;;;;22.98;55.38;95488.88;4894429;29;20252;-84
2022/07/29 01:37:04;;;;;;;1.20;1.10;;;;;;;23.04;55.43;95495.72;4895386;29;20306;-85
2022/07/29 01:39:33;;;;;;;1.00;1.00;;;;;;;22.99;54.88;95478.13;4894987;29;20202;-84
2022/07/29 01:42:10;;;;;;;1.05;1.05;;;;;;;23.03;54.68;95473.16;4894541;29;20624;-84
2022/07/29 01:44:42;;;;;;;1.20;1.10;;;;;;;23.06;54.80;95478.69;4894606;29;20238;-84
2022/07/29 01:47:15;;;;;;;2.25;1.10;;;;;;;23.05;54.47;95478.94;4895201;29;20263;-84
2022/07/29 01:49:47;;;;;;;1.20;1.10;;;;;;;23.09;54.53;95491.28;4895250;29;20616;-84
2022/07/29 01:52:19;;;;;;;1.08;1.00;;;;;;;23.12;54.28;95482.09;4893846;29;20282;-85
2022/07/29 01:54:51;;;;;;;1.10;1.02;;;;;;;23.08;54.24;95473.16;4894848;29;20282;-84
2022/07/29 01:57:21;;;;;;;1.55;1.17;;;;;;;23.09;54.33;95478.13;4895026;29;20202;-85
2022/07/29 01:59:51;;;;;;;1.33;1.23;;;;;;;23.03;54.15;95473.16;4894757;29;20198;-84
2022/07/29 02:02:19;;;;;;;1.13;1.02;;;;;;;22.99;54.47;95478.13;4893546;29;20266;-84
2022/07/29 02:04:48;;;;;;;1.42;0.90;;;;;;;23.00;54.31;95473.66;4894766;29;20230;-84
2022/07/29 02:07:17;;;;;;;1.40;1.30;;;;;;;22.97;54.49;95467.06;4894850;29;20199;-84
2022/07/29 02:09:45;;;;;;;1.75;1.00;;;;;;;22.93;54.74;95462.59;4894512;29;20263;-84
2022/07/29 02:12:14;;;;;;;1.30;1.20;;;;;;;22.96;55.03;95462.88;4894600;29;20234;-85
2022/07/29 02:14:44;;;;;;;1.13;1.13;;;;;;;23.05;54.71;95468.44;4894224;29;20226;-84
2022/07/29 02:17:14;;;;;;;1.33;1.23;;;;;;;23.11;54.59;95471.84;4894454;29;20210;-84
2022/07/29 02:19:44;;;;;;;1.35;1.15;;;;;;;23.10;54.60;95465.78;4893980;29;20203;-84
2022/07/29 02:22:12;;;;;;;2.05;1.20;;;;;;;23.03;54.80;95463.44;4884561;29;20278;-85
2022/07/29 02:24:40;;;;;;;1.00;1.00;;;;;;;22.91;55.45;95451.53;4893985;29;20242;-84
2022/07/29 02:27:08;;;;;;;1.17;1.10;;;;;;;22.94;55.31;95443.94;4894147;29;20319;-84
2022/07/29 02:29:37;;;;;;;1.38;1.27;;;;;;;22.98;55.28;95439.78;4894154;29;20710;-85
2022/07/29 02:32:06;;;;;;;1.90;1.10;;;;;;;23.00;55.21;95439.50;4893614;29;20202;-84
2022/07/29 02:34:36;;;;;;;2.20;1.10;;;;;;;22.98;54.96;95437.16;4893741;29;20238;-84
2022/07/29 02:37:04;;;;;;;1.35;1.10;;;;;;;23.00;55.11;95442.94;4894277;29;20211;-84
2022/07/29 02:39:32;;;;;;;2.25;1.17;;;;;;;23.01;54.91;95446.34;4894198;29;20207;-84
2022/07/29 02:42:04;;;;;;;1.60;1.20;;;;;;;23.02;55.08;95447.94;4893333;29;20202;-84
2022/07/29 02:44:32;;;;;;;1.20;1.10;;;;;;;23.00;55.02;95440.31;4893616;29;20290;-84
2022/07/29 02:47:03;;;;;;;1.55;1.10;;;;;;;22.93;55.14;95445.00;4894068;29;20207;-84
2022/07/29 02:49:36;;;;;;;1.35;1.15;;;;;;;22.97;55.05;95443.44;4894517;29;20647;-85
2022/07/29 02:52:07;;;;;;;1.10;1.10;;;;;;;22.99;55.07;95451.06;4894348;29;20289;-84
2022/07/29 02:54:41;;;;;;;1.10;1.10;;;;;;;22.92;55.82;95437.38;4893963;29;20242;-84
2022/07/29 02:57:15;;;;;;;1.40;1.30;;;;;;;22.89;55.88;95433.44;4894870;29;20202;-84
2022/07/29 02:59:44;;;;;;;1.13;1.10;;;;;;;22.67;56.27;95438.84;4894564;29;20306;-84
2022/07/29 03:02:12;;;;;;;1.13;1.13;;;;;;;22.51;57.29;95439.03;4893920;29;20202;-85
2022/07/29 03:04:42;;;;;;;1.42;1.20;;;;;;;22.39;58.10;95442.63;4897149;29;20253;-85
2022/07/29 03:07:11;;;;;;;1.20;1.10;;;;;;;22.50;57.58;95445.31;4898619;29;20218;-84
2022/07/29 03:09:38;;;;;;;1.30;1.20;;;;;;;22.43;57.57;95445.53;4898181;29;20211;-84
2022/07/29 03:12:06;;;;;;;2.38;1.30;;;;;;;22.33;58.29;95440.22;4897581;29;20211;-84
2022/07/29 03:14:33;;;;;;;1.55;1.23;;;;;;;22.23;58.79;95442.78;4897007;29;20258;-84
2022/07/29 03:17:00;;;;;;;1.35;1.25;;;;;;;22.13;59.67;95442.72;4897676;29;20466;-84
2022/07/29 03:19:27;;;;;;;2.35;1.30;;;;;;;22.02;60.10;95432.16;4897467;29;20215;-84
2022/07/29 03:21:57;;;;;;;1.40;1.30;;;;;;;21.88;59.97;95446.72;4897273;29;20209;-85
2022/07/29 03:24:27;;;;;;;1.23;1.13;;;;;;;21.89;60.37;95435.19;4896651;29;20715;-84
2022/07/29 03:26:55;;;;;;;1.48;1.30;;;;;;;21.67;61.06;95440.50;4897265;29;20210;-85
2022/07/29 03:29:22;;;;;;;1.30;1.20;;;;;;;21.70;61.20;95437.38;4897135;29;20199;-85
2022/07/29 03:31:48;;;;;;;1.33;1.23;;;;;;;21.62;61.68;95437.84;4896794;29;20206;-84
2022/07/29 03:34:15;;;;;;;1.25;1.13;;;;;;;21.60;61.53;95436.50;4896571;29;20247;-84
2022/07/29 03:36:41;;;;;;;1.20;1.20;;;;;;;21.59;61.91;95440.16;4897094;29;20207;-84
2022/07/29 03:39:11;;;;;;;1.30;1.20;;;;;;;21.59;62.02;95438.31;4897201;29;20202;-84
2022/07/29 03:41:41;;;;;;;1.40;1.30;;;;;;;21.46;62.54;95443.19;4896382;29;20195;-83
2022/07/29 03:44:08;;;;;;;1.58;1.48;;;;;;;21.59;63.96;95437.53;4897201;29;20241;-83
2022/07/29 03:46:38;;;;;;;2.03;1.48;;;;;;;21.78;61.49;95440.56;4897281;29;20238;-83
2022/07/29 03:49:07;;;;;;;1.52;1.20;;;;;;;21.85;61.28;95444.59;4897568;29;20246;-83
2022/07/29 03:51:34;;;;;;;2.45;1.40;;;;;;;21.97;60.65;95441.78;4896570;29;20287;-85
2022/07/29 03:54:01;;;;;;;1.30;1.20;;;;;;;22.10;59.95;95457.13;4897732;29;20254;-85
2022/07/29 03:56:33;;;;;;;1.85;1.27;;;;;;;22.17;60.03;95454.28;4897405;29;20574;-85
2022/07/29 03:58:59;;;;;;;1.63;1.40;;;;;;;22.14;60.67;95455.56;4897107;29;20202;-83
2022/07/29 04:01:28;;;;;;;1.52;1.42;;;;;;;22.14;61.54;95457.41;4896734;29;20207;-83
2022/07/29 04:03:57;;;;;;;1.92;1.48;;;;;;;21.89;61.64;95453.53;4896502;29;20372;-83
2022/07/29 04:06:25;;;;;;;2.50;1.30;;;;;;;22.06;62.13;95466.53;4897721;29;20257;-85
2022/07/29 04:08:51;;;;;;;1.42;1.33;;;;;;;22.13;60.84;95458.47;4897536;29;20210;-85
2022/07/29 04:11:18;;;;;;;1.55;1.25;;;;;;;22.21;60.58;95456.16;4896825;29;20226;-85
2022/07/29 04:13:46;;;;;;;1.40;1.30;;;;;;;22.15;60.65;95457.16;4896150;29;20253;-85
2022/07/29 04:16:12;;;;;;;2.50;1.35;;;;;;;22.24;61.27;95446.97;4897410;29;20290;-85
2022/07/29 04:18:39;;;;;;;1.40;1.30;;;;;;;22.31;60.70;95464.09;4897471;29;20247;-85
2022/07/29 04:21:05;;;;;;;3.67;1.40;;;;;;;22.39;60.83;95460.19;4897296;29;20230;-84
2022/07/29 04:23:33;;;;;;;1.48;1.38;;;;;;;22.45;60.90;95461.03;4897208;29;20734;-85
2022/07/29 04:26:00;;;;;;;2.10;1.30;;;;;;;22.57;60.54;95464.22;4898073;29;20226;-85
2022/07/29 04:28:27;;;;;;;1.48;1.38;;;;;;;22.61;60.23;95462.69;4897489;29;20211;-85
2022/07/29 04:30:57;;;;;;;1.50;1.40;;;;;;;22.73;59.61;95471.13;4896770;29;20211;-85
2022/07/29 04:33:24;;;;;;;4.43;1.52;;;;;;;22.80;59.64;95468.31;4897417;28;20762;-85
2022/07/29 04:35:50;;;;;;;1.50;1.40;;;;;;;22.96;59.15;95478.63;4889263;29;20226;-86
2022/07/29 04:38:17;;;;;;;3.78;1.45;;;;;;;23.04;59.05;95474.72;4891636;29;20222;-86
2022/07/29 04:40:43;;;;;;;1.50;1.20;;;;;;;23.02;58.52;95487.31;4895975;29;20203;-85
2022/07/29 04:43:10;;;;;;;4.03;1.30;;;;;;;23.13;58.62;95483.66;4903410;28;20257;-85
2022/07/29 04:45:36;;;;;;;1.50;1.40;;;;;;;23.25;58.72;95484.25;4897881;29;20218;-86
2022/07/29 04:48:05;;;;;;;1.48;1.38;;;;;;;23.49;58.43;95473.25;4893358;29;20290;-85
2022/07/29 04:50:31;;;;;;;2.50;1.45;;;;;;;23.47;58.08;95484.06;4902998;29;20289;-86
2022/07/29 04:52:58;;;;;;;1.40;1.30;;;;;;;23.59;57.67;95484.63;4900369;29;20241;-85
2022/07/29 04:55:24;;;;;;;1.17;1.08;;;;;;;23.58;57.68;95484.88;4891314;29;20234;-85
2022/07/29 04:57:51;;;;;;;1.92;1.38;;;;;;;23.36;57.54;95490.31;4901455;29;20806;-86
2022/07/29 05:00:17;;;;;;;1.48;1.38;;;;;;;23.38;57.99;95496.91;4906377;29;20199;-85
2022/07/29 05:02:44;;;;;;;2.17;1.40;;;;;;;23.34;58.01;95495.81;4903439;28;20726;-86
2022/07/29 05:05:12;;;;;;;1.55;1.45;;;;;;;23.40;57.69;95497.44;4905716;29;20583;-86
2022/07/29 05:07:38;;;;;;;4.65;1.40;;;;;;;23.35;57.16;95496.63;4897400;29;20210;-85
2022/07/29 05:10:06;;;;;;;1.77;1.52;;;;;;;23.30;57.70;95493.97;4892860;29;20211;-86
2022/07/29 05:12:32;;;;;;;1.92;1.73;;;;;;;23.33;58.24;95499.50;4908535;28;20513;-85
2022/07/29 05:14:59;;;;;;;1.35;1.25;;;;;;;23.42;57.73;95500.59;4908011;29;20230;-84
2022/07/29 05:17:25;;;;;;;1.60;1.50;;;;;;;23.45;57.33;95501.91;4903229;29;20206;-84
2022/07/29 05:19:52;;;;;;;1.63;1.52;;;;;;;23.49;57.36;95502.97;4901956;29;20206;-83
2022/07/29 05:22:20;;;;;;;1.67;1.42;;;;;;;23.54;57.03;95499.59;4905534;28;20203;-84
2022/07/29 05:24:47;;;;;;;1.83;1.60;;;;;;;23.51;56.99;95498.22;4904497;29;20304;-84
2022/07/29 05:27:13;;;;;;;4.22;1.63;;;;;;;23.54;57.12;95494.34;4893199;29;20217;-83
2022/07/29 05:29:40;;;;;;;2.20;1.80;;;;;;;23.59;57.14;95494.34;4889972;29;20215;-83
2022/07/29 05:32:07;;;;;;;2.55;1.73;;;;;;;23.54;57.65;95497.75;4894959;29;20206;-84
2022/07/29 05:34:39;;;;;;;7.10;5.35;;;;;;;23.58;57.15;95498.03;4893955;29;20469;-83
2022/07/29 05:37:08;;;;;;;14.50;13.10;;;;;;;23.60;56.77;95506.44;4894803;29;20583;-83
2022/07/29 05:39:35;;;;;;;9.38;8.48;;;;;;;23.56;57.32;95515.91;4890552;29;20242;-84
2022/07/29 05:42:02;;;;;;;6.47;5.88;;;;;;;23.49;56.61;95515.31;4894117;29;20198;-84
2022/07/29 05:44:36;;;;;;;4.20;3.90;;;;;;;23.50;56.44;95515.06;4894498;29;20239;-84
2022/07/29 05:47:03;;;;;;;3.08;2.63;;;;;;;23.54;56.16;95512.72;4899288;29;20202;-84
2022/07/29 05:49:29;;;;;;;2.80;2.60;;;;;;;23.54;56.69;95510.91;4894607;29;20238;-84
2022/07/29 05:51:58;;;;;;;3.20;2.10;;;;;;;23.52;56.84;95523.50;4894185;29;20203;-84
2022/07/29 05:54:25;;;;;;;1.80;1.65;;;;;;;23.54;56.59;95523.25;4895243;29;20238;-84
2022/07/29 05:56:53;;;;;;;2.30;2.10;;;;;;;23.62;56.55;95512.25;4895041;29;20206;-83
2022/07/29 05:59:19;;;;;;;4.28;3.88;;;;;;;23.50;55.67;95519.53;4888340;29;20233;-83
2022/07/29 06:01:46;;;;;;;4.97;4.57;;;;;;;23.51;56.13;95521.88;4890871;29;20215;-83
2022/07/29 06:04:14;;;;;;;2.35;2.00;;;;;;;23.51;55.52;95511.38;4891893;29;20242;-83
2022/07/29 06:06:40;;;;;;;3.33;2.85;;;;;;;23.50;56.15;95517.69;4897872;29;20203;-83
2022/07/29 06:09:09;;;;;;;2.78;2.30;;;;;;;23.55;55.88;95520.34;4897416;29;20671;-83
2022/07/29 06:11:36;;;;;;;2.33;2.13;;;;;;;23.62;55.30;95512.25;4894259;29;20211;-84
2022/07/29 06:14:06;;;;;;;1.55;1.40;;;;;;;23.58;54.80;95522.47;4894935;29;20655;-83
2022/07/29 06:16:32;;;;;;;2.03;1.90;;;;;;;23.49;55.77;95523.19;4894730;29;20234;-83
2022/07/29 06:18:59;;;;;;;5.03;1.95;;;;;;;23.60;55.36;95509.88;4895457;29;20214;-83
2022/07/29 06:21:25;;;;;;;1.90;1.52;;;;;;;23.70;55.53;95515.13;4893957;29;20480;-84
2022/07/29 06:23:53;;;;;;;1.63;1.52;;;;;;;23.67;55.13;95514.84;4894498;29;20718;-84
2022/07/29 06:26:29;;;;;;;2.20;1.40;;;;;;;23.80;54.94;95514.38;4894721;29;20203;-84
2022/07/29 06:28:56;;;;;;;2.90;1.60;;;;;;;23.81;55.31;95520.41;4893699;29;20660;-84
2022/07/29 06:31:24;;;;;;;5.35;1.70;;;;;;;23.90;54.95;95526.72;4892804;29;20301;-84
2022/07/29 06:33:50;;;;;;;4.03;1.80;;;;;;;23.85;55.09;95526.75;4893243;29;20447;-85
2022/07/29 06:36:19;;;;;;;4.03;1.80;;;;;;;23.93;54.74;95513.06;4894286;29;20229;-86
2022/07/29 06:38:45;;;;;;;1.92;1.80;;;;;;;23.91;54.22;95512.53;4899930;29;20202;-86
2022/07/29 06:41:15;;;;;;;2.65;1.60;;;;;;;24.00;54.66;95519.66;4899109;29;20214;-86
2022/07/29 06:43:43;;;;;;;2.33;1.50;;;;;;;24.11;54.34;95523.84;4898458;29;20317;-86
2022/07/29 06:46:12;;;;;;;1.77;1.50;;;;;;;24.17;54.43;95518.59;4899978;29;20210;-86
2022/07/29 06:48:43;;;;;;;1.95;1.60;;;;;;;24.23;53.50;95533.34;4899881;29;20215;-86
2022/07/29 06:51:11;;;;;;;1.63;1.52;;;;;;;24.31;53.29;95528.34;4899270;29;20210;-86
2022/07/29 06:53:38;;;;;;;1.65;1.40;;;;;;;24.42;53.28;95529.94;4900057;29;20298;-86
2022/07/29 06:56:09;;;;;;;2.08;1.30;;;;;;;24.52;53.10;95528.34;4900371;29;20229;-85
2022/07/29 06:58:36;;;;;;;1.88;1.60;;;;;;;24.52;52.01;95538.88;4901436;29;20199;-87
2022/07/29 07:01:07;;;;;;;1.70;1.40;;;;;;;24.53;52.34;95537.81;4899245;29;20207;-86
2022/07/29 07:03:38;;;;;;;1.30;1.20;;;;;;;24.56;52.69;95543.34;4900174;28;20223;-87
2022/07/29 07:06:06;;;;;;;2.45;1.52;;;;;;;24.54;52.06;95555.97;4901619;29;20206;-86
2022/07/29 07:08:32;;;;;;;2.38;1.60;;;;;;;24.53;52.02;95545.72;4901545;29;20202;-85
2022/07/29 07:10:59;;;;;;;1.48;1.38;;;;;;;24.61;52.13;95550.47;4900420;29;20222;-86
2022/07/29 07:13:25;;;;;;;4.97;1.50;;;;;;;24.69;52.02;95547.28;4901024;28;20238;-86
2022/07/29 07:15:52;;;;;;;1.50;1.40;;;;;;;24.62;51.88;95547.56;4903202;29;20602;-86
2022/07/29 07:18:19;;;;;;;2.88;1.30;;;;;;;24.71;52.33;95542.53;4901542;29;20255;-85
2022/07/29 07:20:52;;;;;;;2.97;1.60;;;;;;;24.70;52.91;95533.84;4903348;29;20213;-85
2022/07/29 07:23:20;;;;;;;2.00;1.63;;;;;;;24.69;52.96;95534.91;4901342;29;20249;-85
2022/07/29 07:25:46;;;;;;;1.35;1.25;;;;;;;24.87;52.34;95543.28;4903738;29;20198;-85
2022/07/29 07:28:12;;;;;;;1.58;1.48;;;;;;;24.99;51.76;95535.91;4901814;29;20207;-85
2022/07/29 07:30:40;;;;;;;1.70;1.50;;;;;;;25.01;51.98;95529.34;4901643;29;20207;-85
2022/07/29 07:33:06;;;;;;;1.63;1.50;;;;;;;24.97;50.63;95533.56;4901794;29;20269;-85
2022/07/29 07:35:33;;;;;;;5.72;5.25;;;;;;;25.12;50.63;95535.34;4911848;29;20222;-85
2022/07/29 07:37:59;;;;;;;5.32;4.93;;;;;;;25.25;50.60;95536.59;4920086;29;20266;-85
2022/07/29 07:40:27;;;;;;;2.67;2.13;;;;;;;25.30;49.72;95529.47;4921119;29;20368;-84
2022/07/29 07:42:53;;;;;;;2.17;1.77;;;;;;;25.32;48.15;95537.91;4922260;28;20234;-85
2022/07/29 07:45:20;;;;;;;2.13;1.42;;;;;;;25.24;47.99;95538.44;4921000;29;20213;-85
2022/07/29 07:47:48;;;;;;;1.50;1.40;;;;;;;25.39;48.23;95533.13;4921591;29;20214;-85
2022/07/29 07:50:15;;;;;;;2.55;1.60;;;;;;;25.53;48.74;95540.44;4916748;29;20202;-86
2022/07/29 07:52:49;;;;;;;2.03;1.70;;;;;;;25.71;48.16;95534.56;4917068;28;20272;-85
2022/07/29 07:55:16;;;;;;;2.35;1.45;;;;;;;25.76;47.35;95532.72;4904751;29;20254;-84
2022/07/29 07:57:44;;;;;;;1.67;1.52;;;;;;;25.88;47.20;95529.72;4901560;29;20199;-85
2022/07/29 08:00:14;;;;;;;3.20;1.55;;;;;;;26.04;47.02;95531.19;4895617;29;20207;-85
2022/07/29 08:02:42;;;;;;;1.60;1.50;;;;;;;26.18;47.01;95531.34;4897413;29;20234;-85
2022/07/29 08:05:09;;;;;;;3.08;1.40;;;;;;;26.36;46.42;95537.84;4897140;29;20223;-86
2022/07/29 08:07:36;;;;;;;1.52;1.42;;;;;;;26.34;45.45;95535.47;4897764;29;20206;-85
2022/07/29 08:10:03;;;;;;;1.60;1.40;;;;;;;26.46;46.36;95538.53;4896421;29;20226;-86
2022/07/29 08:12:30;;;;;;;2.10;1.35;;;;;;;26.58;45.89;95540.78;4896933;29;20576;-86
2022/07/29 08:15:01;;;;;;;2.83;1.33;;;;;;;26.68;45.56;95539.94;4896624;29;20231;-86
2022/07/29 08:17:28;;;;;;;1.85;1.40;;;;;;;26.60;44.69;95543.94;4896143;29;20734;-85
2022/07/29 08:19:54;;;;;;;1.50;1.40;;;;;;;26.62;45.16;95538.41;4896901;29;20215;-84
2022/07/29 08:22:21;;;;;;;1.60;1.50;;;;;;;26.76;45.55;95541.94;4895979;29;20207;-85
2022/07/29 08:24:52;;;;;;;1.63;1.52;;;;;;;26.86;46.08;95541.06;4896158;29;20234;-85
2022/07/29 08:27:19;;;;;;;2.55;1.60;;;;;;;26.95;44.89;95531.47;4896841;29;20874;-86
2022/07/29 08:29:45;;;;;;;2.13;1.60;;;;;;;27.10;44.91;95534.75;4895808;29;20203;-85
2022/07/29 08:32:13;;;;;;;1.80;1.70;;;;;;;27.24;44.72;95542.78;4895579;29;20210;-85
2022/07/29 08:34:39;;;;;;;2.70;1.45;;;;;;;27.41;43.97;95547.59;4896012;29;20295;-85
2022/07/29 08:37:06;;;;;;;2.85;1.80;;;;;;;27.52;43.66;95546.41;4896241;29;20223;-86
2022/07/29 08:39:32;;;;;;;1.48;1.38;;;;;;;27.45;43.96;95543.34;4896325;29;20218;-85
2022/07/29 08:41:59;;;;;;;30.00;27.27;;;;;;;27.55;44.93;95543.19;4895913;29;20233;-86
2022/07/29 08:44:26;;;;;;;6.22;5.72;;;;;;;27.73;43.78;95544.31;4886568;29;20242;-85
2022/07/29 08:46:54;;;;;;;2.13;1.92;;;;;;;27.82;43.36;95542.59;4896128;29;20210;-86
2022/07/29 08:49:21;;;;;;;2.35;1.60;;;;;;;27.87;43.76;95537.25;4895636;29;20730;-86
2022/07/29 08:51:48;;;;;;;1.75;1.65;;;;;;;27.78;43.93;95537.09;4895664;29;20740;-86
2022/07/29 08:54:18;;;;;;;2.40;2.20;;;;;;;27.62;44.00;95545.53;4895887;29;20235;-85
2022/07/29 08:56:45;;;;;;;1.90;1.75;;;;;;;27.46;44.08;95544.91;4895746;29;20238;-86
2022/07/29 08:59:13;;;;;;;1.95;1.80;;;;;;;27.33;44.13;95551.66;4895688;29;20203;-87
2022/07/29 09:01:42;;;;;;;1.98;1.88;;;;;;;27.35;44.13;95559.31;4894324;29;20206;-86
2022/07/29 09:04:11;;;;;;;2.35;2.00;;;;;;;27.53;44.72;95561.19;4894689;29;20792;-86
2022/07/29 09:06:43;;;;;;;2.65;2.10;;;;;;;27.64;45.63;95561.91;4895856;29;20214;-86
2022/07/29 09:09:10;;;;;;;2.17;1.95;;;;;;;27.62;44.45;95559.53;4895203;29;20199;-86
2022/07/29 09:11:37;;;;;;;1.92;1.75;;;;;;;27.52;44.97;95567.56;4895085;29;20215;-87
2022/07/29 09:14:04;;;;;;;1.75;1.65;;;;;;;27.53;44.04;95569.13;4894891;29;20239;-86
2022/07/29 09:16:45;;;;;;;2.47;1.90;;;;;;;27.80;44.48;95568.56;4895693;29;20223;-85
2022/07/29 09:19:23;;;;;;;1.80;1.70;;;;;;;27.89;43.95;95556.28;4894731;29;20215;-86
2022/07/29 09:22:01;;;;;;;2.00;1.70;;;;;;;28.03;43.71;95557.13;4893354;29;20587;-85
2022/07/29 09:24:38;;;;;;;2.30;2.17;;;;;;;28.07;43.24;95560.78;4894292;29;20236;-87
2022/07/29 09:27:09;;;;;;;2.40;2.20;;;;;;;27.97;43.90;95557.47;4895061;29;20623;-85
2022/07/29 09:29:36;;;;;;;2.72;2.00;;;;;;;27.95;44.31;95556.97;4894624;29;20199;-86
2022/07/29 09:32:08;;;;;;;2.00;1.90;;;;;;;27.99;43.06;95547.38;4894020;29;20667;-86
2022/07/29 09:34:37;;;;;;;2.17;2.03;;;;;;;28.03;43.22;95558.97;4881149;29;20231;-87
2022/07/29 09:37:05;;;;;;;2.15;2.05;;;;;;;27.88;43.83;95559.22;4913774;29;20222;-86
2022/07/29 09:39:35;;;;;;;4.88;2.15;;;;;;;27.81;44.05;95559.56;4901888;29;20209;-86
2022/07/29 09:42:06;;;;;;;4.10;2.13;;;;;;;27.67;44.53;95548.09;4894193;29;20300;-86
2022/07/29 09:44:50;;;;;;;3.30;2.00;;;;;;;27.38;44.52;95554.25;4894249;29;20239;-85
2022/07/29 09:47:17;;;;;;;4.05;2.20;;;;;;;27.06;44.87;95549.59;4892030;29;20214;-86
2022/07/29 09:49:57;;;;;;;3.25;2.30;;;;;;;27.01;45.70;95549.66;4893959;29;20285;-86
2022/07/29 09:52:26;;;;;;;4.70;2.38;;;;;;;27.09;45.61;95543.75;4893266;29;20263;-87
2022/07/29 09:54:53;;;;;;;1.95;1.85;;;;;;;27.25;45.34;95541.72;4894663;29;20264;-86
2022/07/29 09:57:26;;;;;;;3.47;2.03;;;;;;;27.26;45.59;95545.94;4894243;29;20234;-86
2022/07/29 10:00:02;;;;;;;2.97;2.10;;;;;;;27.15;45.87;95544.47;4894407;29;20821;-86
2022/07/29 10:02:31;;;;;;;2.35;2.10;;;;;;;27.25;45.71;95539.06;4894317;28;20203;-86
2022/07/29 10:04:57;;;;;;;2.72;2.20;;;;;;;27.21;46.34;95535.41;4899492;29;20316;-86
2022/07/29 10:07:25;;;;;;;5.28;4.80;;;;;;;27.16;46.27;95543.41;4897126;29;20199;-87
2022/07/29 10:09:56;;;;;;;4.38;4.07;;;;;;;27.15;45.98;95542.63;4893348;29;20214;-86
2022/07/29 10:12:24;;;;;;;3.50;2.50;;;;;;;27.33;45.65;95543.72;4892408;29;20214;-86
2022/07/29 10:14:51;;;;;;;4.50;2.65;;;;;;;27.63;44.50;95549.75;4894508;29;20222;-85
2022/07/29 10:17:19;;;;;;;2.90;2.33;;;;;;;27.74;43.73;95537.94;4894427;29;20223;-85
2022/07/29 10:19:45;;;;;;;3.20;2.83;;;;;;;27.69;44.57;95544.09;4893915;29;20583;-86
2022/07/29 10:22:12;;;;;;;3.53;2.30;;;;;;;27.75;44.41;95539.50;4893778;29;20209;-86
2022/07/29 10:24:40;;;;;;;2.72;2.30;;;;;;;27.72;44.64;95545.38;4893677;29;20245;-86
2022/07/29 10:27:09;;;;;;;2.40;2.20;;;;;;;27.84;44.78;95541.25;4894706;29;20210;-86
2022/07/29 10:29:35;;;;;;;4.13;2.42;;;;;;;27.83;44.97;95538.88;4886099;29;20624;-86
2022/07/29 10:32:22;;;;;;;2.67;2.38;;;;;;;27.85;44.75;95542.81;4893620;29;20266;-86
2022/07/29 10:35:07;;;;;;;2.50;2.30;;;;;;;27.72;44.92;95545.38;4906762;29;20237;-86
2022/07/29 10:37:44;;;;;;;3.55;2.50;;;;;;;27.63;45.11;95537.31;4913521;29;20237;-87
2022/07/29 10:43:18;;;;;;;5.40;4.90;;;;;;;28.26;44.77;95533.50;4893472;29;20648;-84
2022/07/29 10:45:46;;;;;;;2.97;2.60;;;;;;;28.59;43.61;95540.38;4893429;29;20300;-84
2022/07/29 10:48:15;;;;;;;3.20;2.40;;;;;;;28.59;43.11;95531.63;4904192;29;20202;-84
2022/07/29 10:50:55;;;;;;;2.63;2.28;;;;;;;28.26;43.73;95531.66;4912313;29;20297;-84
2022/07/29 10:53:23;;;;;;;2.58;2.33;;;;;;;28.21;43.87;95537.03;4912787;28;20237;-84
2022/07/29 10:55:52;;;;;;;3.10;2.50;;;;;;;28.42;43.08;95516.28;4904491;29;20211;-84
2022/07/29 10:58:20;;;;;;;2.65;2.00;;;;;;;28.54;43.19;95516.59;4893954;29;20373;-84
2022/07/29 11:00:48;;;;;;;3.28;2.20;;;;;;;28.81;42.76;95514.03;4893091;29;20816;-84
2022/07/29 11:03:47;;;;;;;3.92;2.30;;;;;;;29.20;41.62;95518.06;4893537;29;20302;-84
2022/07/29 11:06:14;;;;;;;2.97;2.30;;;;;;;29.32;40.88;95522.84;4893428;29;20211;-84
2022/07/29 11:08:45;;;;;;;2.28;2.08;;;;;;;29.51;40.60;95511.06;4901055;29;20203;-84
2022/07/29 11:11:40;;;;;;;4.05;2.33;;;;;;;29.74;40.51;95524.38;4913081;29;20693;-85
2022/07/29 11:14:06;;;;;;;2.50;2.10;;;;;;;29.70;39.83;95513.56;4912516;28;20241;-84
2022/07/29 11:17:05;;;;;;;2.67;2.20;;;;;;;29.45;40.09;95514.13;4895520;29;20715;-84
2022/07/29 11:19:32;;;;;;;2.70;2.50;;;;;;;29.52;39.26;95509.19;4904476;29;20240;-85
2022/07/29 11:22:00;;;;;;;2.65;2.30;;;;;;;29.61;39.90;95517.25;4911882;29;20594;-84
2022/07/29 11:24:28;;;;;;;5.22;2.35;;;;;;;29.46;40.80;95511.16;4902772;28;20242;-84
2022/07/29 11:27:13;;;;;;;14.98;13.68;;;;;;;29.29;40.29;95505.66;4896394;29;20250;-85
2022/07/29 11:29:48;;;;;;;4.75;4.18;;;;;;;29.04;39.70;95503.53;4889130;29;20198;-84
2022/07/29 11:32:17;;;;;;;6.95;2.55;;;;;;;29.12;39.62;95500.97;4897008;29;20237;-84
2022/07/29 11:34:44;;;;;;;4.53;2.50;;;;;;;29.40;39.43;95500.97;4897174;29;20238;-84
2022/07/29 11:37:24;;;;;;;2.65;2.13;;;;;;;29.40;39.87;95496.47;4896728;29;20699;-84
2022/07/29 11:40:15;;;;;;;2.08;1.98;;;;;;;29.19;38.54;95500.56;4897491;29;20207;-85
2022/07/29 11:42:46;;;;;;;3.10;2.22;;;;;;;28.93;38.14;95499.50;4896573;29;20241;-85
2022/07/29 11:45:15;;;;;;;4.00;2.20;;;;;;;28.86;38.61;95499.91;4896968;29;20227;-85
2022/07/29 11:47:47;;;;;;;2.03;1.90;;;;;;;28.71;38.98;95498.28;4898389;29;20211;-84